sensor_id;sensor_type;location;lat;lon;timestamp;pressure;altitude;pressure_sealevel;temperature;humidity
76726;BME280;65651;53.154;17.916;2023-02-15T00:00:06;102804.40;;;-0.29;83.56
76726;BME280;65651;53.154;17.916;2023-02-15T00:02:57;102809.81;;;-0.25;83.59
76726;BME280;65651;53.154;17.916;2023-02-15T00:05:24;102806.77;;;-0.22;83.68
76726;BME280;65651;53.154;17.916;2023-02-15T00:07:51;102807.58;;;-0.17;83.54
76726;BME280;65651;53.154;17.916;2023-02-15T00:10:19;102809.46;;;-0.14;83.64
76726;BME280;65651;53.154;17.916;2023-02-15T00:12:49;102807.65;;;-0.10;83.54
76726;BME280;65651;53.154;17.916;2023-02-15T00:15:16;102804.40;;;-0.06;83.64
76726;BME280;65651;53.154;17.916;2023-02-15T00:17:47;102804.34;;;-0.03;83.58
76726;BME280;65651;53.154;17.916;2023-02-15T00:20:14;102805.20;;;0.00;83.67
76726;BME280;65651;53.154;17.916;2023-02-15T00:22:41;102798.81;;;0.02;83.60
76726;BME280;65651;53.154;17.916;2023-02-15T00:25:09;102799.15;;;0.03;83.59
76726;BME280;65651;53.154;17.916;2023-02-15T00:27:36;102794.18;;;0.04;83.59
76726;BME280;65651;53.154;17.916;2023-02-15T00:30:04;102791.86;;;0.05;83.60
76726;BME280;65651;53.154;17.916;2023-02-15T00:32:32;102793.09;;;0.05;83.58
76726;BME280;65651;53.154;17.916;2023-02-15T00:35:00;102792.91;;;0.06;83.69
76726;BME280;65651;53.154;17.916;2023-02-15T00:37:28;102792.70;;;0.08;83.66
76726;BME280;65651;53.154;17.916;2023-02-15T00:39:55;102789.45;;;0.11;83.59
76726;BME280;65651;53.154;17.916;2023-02-15T00:42:23;102786.95;;;0.14;83.61
76726;BME280;65651;53.154;17.916;2023-02-15T00:44:52;102783.00;;;0.18;83.61
76726;BME280;65651;53.154;17.916;2023-02-15T00:47:21;102782.77;;;0.21;83.65
76726;BME280;65651;53.154;17.916;2023-02-15T00:49:48;102779.01;;;0.24;83.66
76726;BME280;65651;53.154;17.916;2023-02-15T00:52:15;102781.05;;;0.28;83.62
76726;BME280;65651;53.154;17.916;2023-02-15T00:54:43;102780.99;;;0.32;83.57
76726;BME280;65651;53.154;17.916;2023-02-15T00:57:10;102781.46;;;0.35;83.64
76726;BME280;65651;53.154;17.916;2023-02-15T00:59:38;102783.54;;;0.38;83.75
76726;BME280;65651;53.154;17.916;2023-02-15T01:02:08;102782.08;;;0.40;83.67
76726;BME280;65651;53.154;17.916;2023-02-15T01:04:35;102779.44;;;0.40;83.67
76726;BME280;65651;53.154;17.916;2023-02-15T01:07:03;102774.71;;;0.38;83.69
76726;BME280;65651;53.154;17.916;2023-02-15T01:09:33;102773.48;;;0.37;83.74
76726;BME280;65651;53.154;17.916;2023-02-15T01:12:01;102774.39;;;0.35;83.68
76726;BME280;65651;53.154;17.916;2023-02-15T01:14:28;102774.05;;;0.35;83.79
76726;BME280;65651;53.154;17.916;2023-02-15T01:16:55;102772.63;;;0.35;83.63
76726;BME280;65651;53.154;17.916;2023-02-15T01:19:23;102768.17;;;0.37;83.73
76726;BME280;65651;53.154;17.916;2023-02-15T01:21:50;102768.14;;;0.39;83.80
76726;BME280;65651;53.154;17.916;2023-02-15T01:24:17;102762.25;;;0.42;83.79
76726;BME280;65651;53.154;17.916;2023-02-15T01:26:45;102758.13;;;0.46;83.85
76726;BME280;65651;53.154;17.916;2023-02-15T01:29:12;102755.24;;;0.49;83.72
76726;BME280;65651;53.154;17.916;2023-02-15T01:31:40;102752.54;;;0.51;83.83
76726;BME280;65651;53.154;17.916;2023-02-15T01:34:07;102750.73;;;0.54;83.72
76726;BME280;65651;53.154;17.916;2023-02-15T01:36:35;102748.59;;;0.55;83.81
76726;BME280;65651;53.154;17.916;2023-02-15T01:39:02;102743.79;;;0.57;83.83
76726;BME280;65651;53.154;17.916;2023-02-15T01:41:32;102739.48;;;0.60;83.74
76726;BME280;65651;53.154;17.916;2023-02-15T01:44:02;102740.52;;;0.61;83.76
76726;BME280;65651;53.154;17.916;2023-02-15T01:46:49;102737.88;;;0.60;83.79
76726;BME280;65651;53.154;17.916;2023-02-15T01:49:21;102737.09;;;0.56;83.75
76726;BME280;65651;53.154;17.916;2023-02-15T01:51:52;102736.63;;;0.52;83.70
76726;BME280;65651;53.154;17.916;2023-02-15T01:54:27;102734.75;;;0.49;83.81
76726;BME280;65651;53.154;17.916;2023-02-15T01:57:01;102734.80;;;0.46;83.78
76726;BME280;65651;53.154;17.916;2023-02-15T01:59:39;102734.14;;;0.44;83.75
76726;BME280;65651;53.154;17.916;2023-02-15T02:02:13;102729.20;;;0.43;83.82
76726;BME280;65651;53.154;17.916;2023-02-15T02:04:45;102732.71;;;0.45;83.83
76726;BME280;65651;53.154;17.916;2023-02-15T02:07:17;102735.17;;;0.45;83.93
76726;BME280;65651;53.154;17.916;2023-02-15T02:09:47;102730.58;;;0.45;83.86
76726;BME280;65651;53.154;17.916;2023-02-15T02:12:17;102727.20;;;0.46;83.86
76726;BME280;65651;53.154;17.916;2023-02-15T02:14:47;102723.14;;;0.46;83.98
76726;BME280;65651;53.154;17.916;2023-02-15T02:17:23;102722.98;;;0.45;83.93
76726;BME280;65651;53.154;17.916;2023-02-15T02:20:17;102724.07;;;0.44;83.96
76726;BME280;65651;53.154;17.916;2023-02-15T02:31:35;102721.52;;;0.39;84.10
76726;BME280;65651;53.154;17.916;2023-02-15T02:37:24;102717.44;;;0.30;84.01
76726;BME280;65651;53.154;17.916;2023-02-15T02:42:41;102717.11;;;0.19;84.10
76726;BME280;65651;53.154;17.916;2023-02-15T02:45:18;102717.55;;;0.15;84.03
76726;BME280;65651;53.154;17.916;2023-02-15T02:47:54;102716.93;;;0.10;84.00
76726;BME280;65651;53.154;17.916;2023-02-15T02:50:26;102711.67;;;0.08;84.10
76726;BME280;65651;53.154;17.916;2023-02-15T02:52:59;102707.61;;;0.08;84.21
76726;BME280;65651;53.154;17.916;2023-02-15T02:55:53;102704.97;;;0.07;84.08
76726;BME280;65651;53.154;17.916;2023-02-15T02:58:31;102706.58;;;0.06;84.20
76726;BME280;65651;53.154;17.916;2023-02-15T03:01:24;102704.45;;;0.07;84.13
76726;BME280;65651;53.154;17.916;2023-02-15T03:04:18;102701.80;;;0.06;84.25
76726;BME280;65651;53.154;17.916;2023-02-15T03:07:01;102704.25;;;0.08;84.23
76726;BME280;65651;53.154;17.916;2023-02-15T03:09:35;102700.13;;;0.11;84.25
76726;BME280;65651;53.154;17.916;2023-02-15T03:12:16;102697.27;;;0.13;84.24
76726;BME280;65651;53.154;17.916;2023-02-15T03:14:52;102697.23;;;0.15;84.26
76726;BME280;65651;53.154;17.916;2023-02-15T03:17:22;102694.20;;;0.16;84.26
76726;BME280;65651;53.154;17.916;2023-02-15T03:19:53;102694.08;;;0.14;84.26
76726;BME280;65651;53.154;17.916;2023-02-15T03:22:29;102701.77;;;0.17;84.24
76726;BME280;65651;53.154;17.916;2023-02-15T03:25:09;102698.13;;;0.14;84.22
76726;BME280;65651;53.154;17.916;2023-02-15T03:27:41;102698.51;;;0.12;84.32
76726;BME280;65651;53.154;17.916;2023-02-15T03:30:12;102696.20;;;0.14;84.39
76726;BME280;65651;53.154;17.916;2023-02-15T03:32:41;102697.01;;;0.17;84.30
76726;BME280;65651;53.154;17.916;2023-02-15T03:35:10;102694.15;;;0.20;84.34
76726;BME280;65651;53.154;17.916;2023-02-15T03:37:54;102693.02;;;0.23;84.34
76726;BME280;65651;53.154;17.916;2023-02-15T03:40:30;102691.23;;;0.25;84.34
76726;BME280;65651;53.154;17.916;2023-02-15T03:43:42;102689.83;;;0.23;84.35
76726;BME280;65651;53.154;17.916;2023-02-15T03:46:37;102689.86;;;0.22;84.41
76726;BME280;65651;53.154;17.916;2023-02-15T03:49:17;102685.26;;;0.22;84.36
76726;BME280;65651;53.154;17.916;2023-02-15T03:51:48;102681.86;;;0.24;84.33
76726;BME280;65651;53.154;17.916;2023-02-15T03:54:28;102680.61;;;0.25;84.39
76726;BME280;65651;53.154;17.916;2023-02-15T03:57:25;102677.98;;;0.24;84.38
76726;BME280;65651;53.154;17.916;2023-02-15T04:03:09;102674.19;;;0.29;84.40
76726;BME280;65651;53.154;17.916;2023-02-15T04:05:38;102676.80;;;0.30;84.39
76726;BME280;65651;53.154;17.916;2023-02-15T04:08:05;102675.36;;;0.33;84.38
76726;BME280;65651;53.154;17.916;2023-02-15T04:10:33;102670.94;;;0.33;84.45
76726;BME280;65651;53.154;17.916;2023-02-15T04:13:23;102676.16;;;0.36;84.49
76726;BME280;65651;53.154;17.916;2023-02-15T04:15:53;102677.32;;;0.40;84.44
76726;BME280;65651;53.154;17.916;2023-02-15T04:18:37;102677.09;;;0.44;84.35
76726;BME280;65651;53.154;17.916;2023-02-15T04:21:25;102681.11;;;0.46;84.38
76726;BME280;65651;53.154;17.916;2023-02-15T04:24:12;102682.80;;;0.49;84.43
76726;BME280;65651;53.154;17.916;2023-02-15T04:26:59;102681.71;;;0.51;84.36
76726;BME280;65651;53.154;17.916;2023-02-15T04:29:27;102677.27;;;0.52;84.35
76726;BME280;65651;53.154;17.916;2023-02-15T04:31:57;102678.70;;;0.51;84.43
76726;BME280;65651;53.154;17.916;2023-02-15T04:34:25;102671.66;;;0.50;84.40
76726;BME280;65651;53.154;17.916;2023-02-15T04:36:53;102676.95;;;0.50;84.43
76726;BME280;65651;53.154;17.916;2023-02-15T04:39:20;102669.70;;;0.50;84.44
76726;BME280;65651;53.154;17.916;2023-02-15T04:41:47;102675.02;;;0.50;84.30
76726;BME280;65651;53.154;17.916;2023-02-15T04:44:15;102673.09;;;0.48;84.40
76726;BME280;65651;53.154;17.916;2023-02-15T04:46:42;102676.13;;;0.46;84.51
76726;BME280;65651;53.154;17.916;2023-02-15T04:49:10;102666.95;;;0.46;84.30
76726;BME280;65651;53.154;17.916;2023-02-15T04:51:39;102663.57;;;0.47;84.51
76726;BME280;65651;53.154;17.916;2023-02-15T04:54:06;102664.95;;;0.49;84.46
76726;BME280;65651;53.154;17.916;2023-02-15T04:56:34;102658.77;;;0.49;84.35
76726;BME280;65651;53.154;17.916;2023-02-15T04:59:02;102658.52;;;0.53;84.34
76726;BME280;65651;53.154;17.916;2023-02-15T05:01:29;102662.52;;;0.55;84.43
76726;BME280;65651;53.154;17.916;2023-02-15T05:03:56;102665.33;;;0.57;84.44
76726;BME280;65651;53.154;17.916;2023-02-15T05:06:24;102666.23;;;0.56;84.52
76726;BME280;65651;53.154;17.916;2023-02-15T05:08:51;102666.09;;;0.54;84.46
76726;BME280;65651;53.154;17.916;2023-02-15T05:11:19;102663.52;;;0.51;84.46
76726;BME280;65651;53.154;17.916;2023-02-15T05:13:46;102658.42;;;0.49;84.45
76726;BME280;65651;53.154;17.916;2023-02-15T05:16:14;102660.55;;;0.48;84.54
76726;BME280;65651;53.154;17.916;2023-02-15T05:18:41;102657.39;;;0.47;84.58
76726;BME280;65651;53.154;17.916;2023-02-15T05:21:09;102655.29;;;0.46;84.45
76726;BME280;65651;53.154;17.916;2023-02-15T05:23:36;102653.53;;;0.46;84.55
76726;BME280;65651;53.154;17.916;2023-02-15T05:26:04;102660.77;;;0.46;84.61
76726;BME280;65651;53.154;17.916;2023-02-15T05:28:50;102662.17;;;0.46;84.59
76726;BME280;65651;53.154;17.916;2023-02-15T05:31:18;102663.77;;;0.47;84.55
76726;BME280;65651;53.154;17.916;2023-02-15T05:33:46;102662.14;;;0.48;84.61
76726;BME280;65651;53.154;17.916;2023-02-15T05:36:14;102666.54;;;0.49;84.55
76726;BME280;65651;53.154;17.916;2023-02-15T05:38:41;102662.30;;;0.50;84.68
76726;BME280;65651;53.154;17.916;2023-02-15T05:41:10;102660.80;;;0.54;84.55
76726;BME280;65651;53.154;17.916;2023-02-15T05:43:38;102658.91;;;0.60;84.71
76726;BME280;65651;53.154;17.916;2023-02-15T05:46:06;102657.42;;;0.64;84.52
76726;BME280;65651;53.154;17.916;2023-02-15T05:48:34;102655.08;;;0.66;84.60
76726;BME280;65651;53.154;17.916;2023-02-15T05:53:32;102653.29;;;0.66;84.56
76726;BME280;65651;53.154;17.916;2023-02-15T05:56:00;102652.55;;;0.69;84.66
76726;BME280;65651;53.154;17.916;2023-02-15T05:58:32;102652.20;;;0.68;84.56
76726;BME280;65651;53.154;17.916;2023-02-15T06:01:08;102651.55;;;0.65;84.41
76726;BME280;65651;53.154;17.916;2023-02-15T06:03:36;102653.56;;;0.63;84.48
76726;BME280;65651;53.154;17.916;2023-02-15T06:06:07;102650.92;;;0.61;84.48
76726;BME280;65651;53.154;17.916;2023-02-15T06:08:36;102650.81;;;0.58;84.55
76726;BME280;65651;53.154;17.916;2023-02-15T06:11:04;102652.81;;;0.55;84.44
76726;BME280;65651;53.154;17.916;2023-02-15T06:13:33;102647.98;;;0.50;84.44
76726;BME280;65651;53.154;17.916;2023-02-15T06:16:00;102648.73;;;0.47;84.57
76726;BME280;65651;53.154;17.916;2023-02-15T06:18:28;102648.06;;;0.46;84.61
76726;BME280;65651;53.154;17.916;2023-02-15T06:20:55;102646.08;;;0.48;84.59
76726;BME280;65651;53.154;17.916;2023-02-15T06:23:22;102645.83;;;0.51;84.62
76726;BME280;65651;53.154;17.916;2023-02-15T06:25:50;102647.80;;;0.51;84.56
76726;BME280;65651;53.154;17.916;2023-02-15T06:28:17;102642.31;;;0.50;84.53
76726;BME280;65651;53.154;17.916;2023-02-15T06:30:44;102643.13;;;0.53;84.63
76726;BME280;65651;53.154;17.916;2023-02-15T06:33:13;102643.63;;;0.55;84.62
76726;BME280;65651;53.154;17.916;2023-02-15T06:35:40;102645.88;;;0.58;84.71
76726;BME280;65651;53.154;17.916;2023-02-15T06:38:08;102643.88;;;0.60;84.62
76726;BME280;65651;53.154;17.916;2023-02-15T06:40:35;102643.65;;;0.63;84.57
76726;BME280;65651;53.154;17.916;2023-02-15T06:43:03;102643.48;;;0.63;84.68
76726;BME280;65651;53.154;17.916;2023-02-15T06:45:31;102640.83;;;0.63;84.56
76726;BME280;65651;53.154;17.916;2023-02-15T06:47:58;102642.86;;;0.66;84.60
76726;BME280;65651;53.154;17.916;2023-02-15T06:50:25;102642.26;;;0.70;84.59
76726;BME280;65651;53.154;17.916;2023-02-15T06:52:57;102637.75;;;0.74;84.58
76726;BME280;65651;53.154;17.916;2023-02-15T06:55:25;102635.69;;;0.79;84.58
76726;BME280;65651;53.154;17.916;2023-02-15T06:57:52;102634.82;;;0.87;84.59
76726;BME280;65651;53.154;17.916;2023-02-15T07:00:20;102638.86;;;0.96;84.41
76726;BME280;65651;53.154;17.916;2023-02-15T07:02:58;102633.48;;;1.07;84.49
76726;BME280;65651;53.154;17.916;2023-02-15T07:05:33;102635.62;;;1.21;84.48
76726;BME280;65651;53.154;17.916;2023-02-15T07:08:01;102625.59;;;1.34;84.23
76726;BME280;65651;53.154;17.916;2023-02-15T07:10:28;102621.28;;;1.43;84.13
76726;BME280;65651;53.154;17.916;2023-02-15T07:12:56;102618.95;;;1.52;84.49
76726;BME280;65651;53.154;17.916;2023-02-15T07:15:24;102620.13;;;1.61;83.94
76726;BME280;65651;53.154;17.916;2023-02-15T07:17:51;102611.79;;;1.69;84.12
76726;BME280;65651;53.154;17.916;2023-02-15T07:20:21;102614.52;;;1.80;84.03
76726;BME280;65651;53.154;17.916;2023-02-15T07:22:49;102613.65;;;1.92;84.05
76726;BME280;65651;53.154;17.916;2023-02-15T07:25:17;102611.16;;;1.99;84.03
76726;BME280;65651;53.154;17.916;2023-02-15T07:27:45;102616.46;;;2.06;83.64
76726;BME280;65651;53.154;17.916;2023-02-15T07:30:15;102622.14;;;2.12;83.69
76726;BME280;65651;53.154;17.916;2023-02-15T07:32:43;102619.31;;;2.18;83.90
76726;BME280;65651;53.154;17.916;2023-02-15T07:35:30;102620.14;;;2.33;83.58
76726;BME280;65651;53.154;17.916;2023-02-15T07:37:57;102620.44;;;2.41;83.47
76726;BME280;65651;53.154;17.916;2023-02-15T07:40:24;102619.60;;;2.52;83.06
76726;BME280;65651;53.154;17.916;2023-02-15T07:42:57;102610.47;;;2.66;83.17
76726;BME280;65651;53.154;17.916;2023-02-15T07:45:26;102608.85;;;2.79;83.14
76726;BME280;65651;53.154;17.916;2023-02-15T07:47:53;102606.99;;;2.93;83.14
76726;BME280;65651;53.154;17.916;2023-02-15T07:50:21;102605.27;;;3.08;83.14
76726;BME280;65651;53.154;17.916;2023-02-15T07:52:49;102599.04;;;3.20;83.07
76726;BME280;65651;53.154;17.916;2023-02-15T07:55:16;102600.63;;;3.31;82.90
76726;BME280;65651;53.154;17.916;2023-02-15T07:57:45;102598.19;;;3.45;82.70
76726;BME280;65651;53.154;17.916;2023-02-15T08:00:15;102596.36;;;3.58;82.32
76726;BME280;65651;53.154;17.916;2023-02-15T08:02:50;102588.39;;;3.67;82.25
76726;BME280;65651;53.154;17.916;2023-02-15T08:05:43;102584.45;;;3.78;82.26
76726;BME280;65651;53.154;17.916;2023-02-15T08:08:12;102579.98;;;3.89;81.99
76726;BME280;65651;53.154;17.916;2023-02-15T08:11:00;102581.70;;;3.96;82.21
76726;BME280;65651;53.154;17.916;2023-02-15T08:13:49;102572.14;;;4.00;81.96
76726;BME280;65651;53.154;17.916;2023-02-15T08:18:52;102563.14;;;4.08;81.63
76726;BME280;65651;53.154;17.916;2023-02-15T08:21:20;102560.69;;;4.17;81.62
76726;BME280;65651;53.154;17.916;2023-02-15T08:23:48;102557.60;;;4.28;81.54
76726;BME280;65651;53.154;17.916;2023-02-15T08:26:15;102554.20;;;4.38;81.53
76726;BME280;65651;53.154;17.916;2023-02-15T08:28:44;102551.93;;;4.46;81.26
76726;BME280;65651;53.154;17.916;2023-02-15T08:31:15;102548.45;;;4.58;81.10
76726;BME280;65651;53.154;17.916;2023-02-15T08:33:44;102551.78;;;4.68;80.95
76726;BME280;65651;53.154;17.916;2023-02-15T08:36:14;102547.14;;;4.77;80.83
76726;BME280;65651;53.154;17.916;2023-02-15T08:38:43;102544.02;;;4.80;80.83
76726;BME280;65651;53.154;17.916;2023-02-15T08:41:21;102543.00;;;4.83;80.54
76726;BME280;65651;53.154;17.916;2023-02-15T08:43:52;102543.61;;;4.90;80.24
76726;BME280;65651;53.154;17.916;2023-02-15T08:46:22;102538.76;;;4.87;80.05
76726;BME280;65651;53.154;17.916;2023-02-15T08:48:50;102534.63;;;4.83;80.01
76726;BME280;65651;53.154;17.916;2023-02-15T08:51:20;102533.89;;;4.84;79.86
76726;BME280;65651;53.154;17.916;2023-02-15T08:53:50;102531.27;;;4.87;79.69
76726;BME280;65651;53.154;17.916;2023-02-15T08:56:23;102529.61;;;4.93;79.64
76726;BME280;65651;53.154;17.916;2023-02-15T08:58:52;102526.86;;;5.03;79.48
76726;BME280;65651;53.154;17.916;2023-02-15T09:01:22;102526.74;;;5.07;79.15
76726;BME280;65651;53.154;17.916;2023-02-15T09:03:55;102523.39;;;5.10;79.01
76726;BME280;65651;53.154;17.916;2023-02-15T09:06:23;102520.69;;;5.06;78.67
76726;BME280;65651;53.154;17.916;2023-02-15T09:08:54;102518.28;;;4.96;78.59
76726;BME280;65651;53.154;17.916;2023-02-15T09:11:28;102517.60;;;4.95;78.67
76726;BME280;65651;53.154;17.916;2023-02-15T09:14:04;102516.55;;;4.99;78.49
76726;BME280;65651;53.154;17.916;2023-02-15T09:16:33;102514.35;;;4.92;78.26
76726;BME280;65651;53.154;17.916;2023-02-15T09:19:02;102512.83;;;4.86;78.18
76726;BME280;65651;53.154;17.916;2023-02-15T09:21:35;102510.52;;;4.86;78.54
76726;BME280;65651;53.154;17.916;2023-02-15T09:24:06;102511.21;;;4.86;78.44
76726;BME280;65651;53.154;17.916;2023-02-15T09:26:37;102511.23;;;4.77;78.17
76726;BME280;65651;53.154;17.916;2023-02-15T09:29:04;102510.73;;;4.72;78.46
76726;BME280;65651;53.154;17.916;2023-02-15T09:31:36;102515.38;;;4.75;78.44
76726;BME280;65651;53.154;17.916;2023-02-15T09:34:04;102514.59;;;4.81;78.26
76726;BME280;65651;53.154;17.916;2023-02-15T09:36:34;102511.83;;;4.83;78.25
76726;BME280;65651;53.154;17.916;2023-02-15T09:39:07;102508.25;;;4.89;78.20
76726;BME280;65651;53.154;17.916;2023-02-15T09:44:49;102506.17;;;4.92;77.95
76726;BME280;65651;53.154;17.916;2023-02-15T09:55:51;102492.30;;;5.34;77.72
76726;BME280;65651;53.154;17.916;2023-02-15T10:10:36;102479.03;;;5.15;76.38
76726;BME280;65651;53.154;17.916;2023-02-15T10:13:40;102478.64;;;5.08;75.95
76726;BME280;65651;53.154;17.916;2023-02-15T10:17:43;102478.01;;;4.89;75.79
76726;BME280;65651;53.154;17.916;2023-02-15T10:25:49;102474.43;;;4.59;75.26
76726;BME280;65651;53.154;17.916;2023-02-15T10:31:26;102467.38;;;4.30;75.34
76726;BME280;65651;53.154;17.916;2023-02-15T10:36:57;102461.70;;;4.35;75.21
76726;BME280;65651;53.154;17.916;2023-02-15T10:45:43;102456.13;;;4.45;75.25
76726;BME280;65651;53.154;17.916;2023-02-15T10:50:54;102450.45;;;4.45;75.07
76726;BME280;65651;53.154;17.916;2023-02-15T11:01:30;102445.11;;;4.45;74.94
76726;BME280;65651;53.154;17.916;2023-02-15T11:06:52;102440.64;;;4.41;74.86
76726;BME280;65651;53.154;17.916;2023-02-15T11:09:23;102438.83;;;4.42;74.84
76726;BME280;65651;53.154;17.916;2023-02-15T11:11:56;102437.59;;;4.55;74.85
76726;BME280;65651;53.154;17.916;2023-02-15T11:14:38;102430.98;;;4.51;74.32
76726;BME280;65651;53.154;17.916;2023-02-15T11:17:15;102423.67;;;4.39;74.40
76726;BME280;65651;53.154;17.916;2023-02-15T11:22:24;102420.85;;;4.38;74.46
76726;BME280;65651;53.154;17.916;2023-02-15T11:24:52;102418.32;;;4.39;74.52
76726;BME280;65651;53.154;17.916;2023-02-15T11:27:24;102414.20;;;4.53;74.39
76726;BME280;65651;53.154;17.916;2023-02-15T11:29:59;102411.73;;;4.57;74.21
76726;BME280;65651;53.154;17.916;2023-02-15T11:32:33;102405.88;;;4.65;74.13
76726;BME280;65651;53.154;17.916;2023-02-15T11:35:18;102403.36;;;4.78;74.00
76726;BME280;65651;53.154;17.916;2023-02-15T11:38:01;102398.13;;;4.92;74.12
76726;BME280;65651;53.154;17.916;2023-02-15T11:40:55;102393.73;;;5.20;74.01
76726;BME280;65651;53.154;17.916;2023-02-15T11:43:43;102391.63;;;5.43;73.91
76726;BME280;65651;53.154;17.916;2023-02-15T11:46:12;102387.64;;;5.64;73.43
76726;BME280;65651;53.154;17.916;2023-02-15T11:48:41;102385.24;;;5.66;73.46
76726;BME280;65651;53.154;17.916;2023-02-15T11:51:14;102383.13;;;5.77;73.17
76726;BME280;65651;53.154;17.916;2023-02-15T11:53:44;102388.11;;;5.77;73.21
76726;BME280;65651;53.154;17.916;2023-02-15T11:56:18;102387.77;;;5.81;72.97
76726;BME280;65651;53.154;17.916;2023-02-15T11:58:50;102385.43;;;5.84;73.10
76726;BME280;65651;53.154;17.916;2023-02-15T12:04:17;102379.26;;;5.79;72.59
76726;BME280;65651;53.154;17.916;2023-02-15T12:06:49;102372.14;;;5.80;72.49
76726;BME280;65651;53.154;17.916;2023-02-15T12:09:28;102369.67;;;5.83;72.59
76726;BME280;65651;53.154;17.916;2023-02-15T12:12:24;102367.33;;;5.87;72.40
76726;BME280;65651;53.154;17.916;2023-02-15T12:14:57;102363.34;;;5.88;72.15
76726;BME280;65651;53.154;17.916;2023-02-15T12:17:31;102366.95;;;5.84;71.79
76726;BME280;65651;53.154;17.916;2023-02-15T12:20:02;102364.92;;;5.62;72.01
76726;BME280;65651;53.154;17.916;2023-02-15T12:22:34;102360.63;;;5.55;71.99
76726;BME280;65651;53.154;17.916;2023-02-15T12:25:23;102359.58;;;5.58;72.07
76726;BME280;65651;53.154;17.916;2023-02-15T12:27:53;102359.44;;;5.57;71.96
76726;BME280;65651;53.154;17.916;2023-02-15T12:30:34;102351.23;;;5.66;72.00
76726;BME280;65651;53.154;17.916;2023-02-15T12:33:15;102347.90;;;5.64;71.97
76726;BME280;65651;53.154;17.916;2023-02-15T12:35:44;102346.81;;;5.61;71.92
76726;BME280;65651;53.154;17.916;2023-02-15T12:40:38;102348.92;;;5.50;71.66
76726;BME280;65651;53.154;17.916;2023-02-15T12:43:26;102346.54;;;5.40;71.80
76726;BME280;65651;53.154;17.916;2023-02-15T12:46:33;102343.16;;;5.32;71.68
76726;BME280;65651;53.154;17.916;2023-02-15T12:49:07;102334.27;;;5.24;71.68
76726;BME280;65651;53.154;17.916;2023-02-15T12:51:50;102331.34;;;5.18;71.78
76726;BME280;65651;53.154;17.916;2023-02-15T12:54:40;102331.03;;;5.17;71.66
76726;BME280;65651;53.154;17.916;2023-02-15T12:57:26;102326.72;;;5.10;71.56
76726;BME280;65651;53.154;17.916;2023-02-15T13:02:27;102323.84;;;4.91;71.77
76726;BME280;65651;53.154;17.916;2023-02-15T13:07:45;102317.88;;;4.88;71.82
76726;BME280;65651;53.154;17.916;2023-02-15T13:10:35;102311.13;;;4.84;71.81
76726;BME280;65651;53.154;17.916;2023-02-15T13:13:10;102309.84;;;4.77;71.63
76726;BME280;65651;53.154;17.916;2023-02-15T13:15:41;102305.89;;;4.74;71.86
76726;BME280;65651;53.154;17.916;2023-02-15T13:18:13;102303.88;;;4.71;71.77
76726;BME280;65651;53.154;17.916;2023-02-15T13:20:44;102304.87;;;4.69;71.90
76726;BME280;65651;53.154;17.916;2023-02-15T13:23:28;102300.61;;;4.68;72.10
76726;BME280;65651;53.154;17.916;2023-02-15T13:25:58;102298.70;;;4.84;72.12
76726;BME280;65651;53.154;17.916;2023-02-15T13:28:40;102299.28;;;4.98;72.10
76726;BME280;65651;53.154;17.916;2023-02-15T13:31:13;102297.22;;;5.05;71.93
76726;BME280;65651;53.154;17.916;2023-02-15T13:33:45;102294.45;;;5.03;71.88
76726;BME280;65651;53.154;17.916;2023-02-15T13:36:30;102294.77;;;5.00;71.93
76726;BME280;65651;53.154;17.916;2023-02-15T13:47:31;102284.92;;;4.86;71.78
76726;BME280;65651;53.154;17.916;2023-02-15T13:52:54;102281.00;;;4.81;71.62
76726;BME280;65651;53.154;17.916;2023-02-15T13:55:55;102277.79;;;4.70;71.53
76726;BME280;65651;53.154;17.916;2023-02-15T14:04:13;102277.77;;;4.29;71.89
76726;BME280;65651;53.154;17.916;2023-02-15T14:06:53;102273.17;;;4.20;71.90
76726;BME280;65651;53.154;17.916;2023-02-15T14:15:42;102268.01;;;4.03;72.38
76726;BME280;65651;53.154;17.916;2023-02-15T14:24:04;102267.30;;;4.12;72.81
76726;BME280;65651;53.154;17.916;2023-02-15T14:29:48;102260.62;;;4.27;72.57
76726;BME280;65651;53.154;17.916;2023-02-15T14:32:41;102258.31;;;4.31;72.57
76726;BME280;65651;53.154;17.916;2023-02-15T14:35:15;102256.77;;;4.26;72.67
76726;BME280;65651;53.154;17.916;2023-02-15T14:37:52;102255.13;;;4.22;72.56
76726;BME280;65651;53.154;17.916;2023-02-15T14:46:38;102250.66;;;4.14;73.01
76726;BME280;65651;53.154;17.916;2023-02-15T14:49:25;102248.48;;;4.15;72.94
76726;BME280;65651;53.154;17.916;2023-02-15T14:51:54;102242.63;;;4.11;73.09
76726;BME280;65651;53.154;17.916;2023-02-15T15:05:20;102230.85;;;3.99;73.12
76726;BME280;65651;53.154;17.916;2023-02-15T15:07:57;102230.91;;;3.90;73.20
76726;BME280;65651;53.154;17.916;2023-02-15T15:10:34;102227.27;;;3.83;73.31
76726;BME280;65651;53.154;17.916;2023-02-15T15:18:52;102212.73;;;3.73;73.47
76726;BME280;65651;53.154;17.916;2023-02-15T15:38:26;102207.60;;;3.20;74.33
76726;BME280;65651;53.154;17.916;2023-02-15T15:49:12;102199.50;;;3.00;74.68
76726;BME280;65651;53.154;17.916;2023-02-15T15:51:44;102198.25;;;3.00;74.93
76726;BME280;65651;53.154;17.916;2023-02-15T15:54:20;102195.95;;;2.95;74.97
76726;BME280;65651;53.154;17.916;2023-02-15T15:57:00;102191.34;;;2.90;75.00
76726;BME280;65651;53.154;17.916;2023-02-15T15:59:32;102187.98;;;2.85;74.94
76726;BME280;65651;53.154;17.916;2023-02-15T16:02:13;102181.02;;;2.82;75.21
76726;BME280;65651;53.154;17.916;2023-02-15T16:04:44;102176.63;;;2.81;75.32
76726;BME280;65651;53.154;17.916;2023-02-15T16:07:24;102172.21;;;2.80;75.26
76726;BME280;65651;53.154;17.916;2023-02-15T16:10:00;102164.71;;;2.81;75.43
76726;BME280;65651;53.154;17.916;2023-02-15T16:12:31;102168.62;;;2.82;75.58